sensor_id;sensor_type;location;lat;lon;timestamp;pressure;altitude;pressure_sealevel;temperature;humidity
50356;BME280;36264;51.296;-0.602;2023-04-10T00:00:02;101265.63;;;17.65;49.94
50356;BME280;36264;51.296;-0.602;2023-04-10T00:02:27;101267.38;;;17.65;49.93
50356;BME280;36264;51.296;-0.602;2023-04-10T00:04:53;101262.13;;;17.65;49.70
50356;BME280;36264;51.296;-0.602;2023-04-10T00:07:18;101264.81;;;17.63;50.08
50356;BME280;36264;51.296;-0.602;2023-04-10T00:09:44;101254.41;;;17.62;50.13
50356;BME280;36264;51.296;-0.602;2023-04-10T00:12:09;101252.47;;;17.65;50.02
50356;BME280;36264;51.296;-0.602;2023-04-10T00:14:39;101250.78;;;17.64;50.24
50356;BME280;36264;51.296;-0.602;2023-04-10T00:17:05;101247.91;;;17.69;50.33
50356;BME280;36264;51.296;-0.602;2023-04-10T00:19:30;101250.84;;;17.63;50.47
50356;BME280;36264;51.296;-0.602;2023-04-10T00:21:56;101245.44;;;17.66;50.60
50356;BME280;36264;51.296;-0.602;2023-04-10T00:24:21;101243.88;;;17.62;50.62
50356;BME280;36264;51.296;-0.602;2023-04-10T00:26:46;101241.03;;;17.66;50.56
50356;BME280;36264;51.296;-0.602;2023-04-10T00:29:12;101242.72;;;17.67;50.58
50356;BME280;36264;51.296;-0.602;2023-04-10T00:31:37;101226.00;;;17.68;50.62
50356;BME280;36264;51.296;-0.602;2023-04-10T00:34:06;101225.59;;;17.93;50.47
50356;BME280;36264;51.296;-0.602;2023-04-10T00:36:31;101216.97;;;17.74;50.64
50356;BME280;36264;51.296;-0.602;2023-04-10T00:38:57;101211.81;;;17.72;50.65
50356;BME280;36264;51.296;-0.602;2023-04-10T00:41:23;101210.88;;;17.73;50.81
50356;BME280;36264;51.296;-0.602;2023-04-10T00:43:49;101205.78;;;17.70;51.11
50356;BME280;36264;51.296;-0.602;2023-04-10T00:46:14;101199.66;;;17.70;51.14
50356;BME280;36264;51.296;-0.602;2023-04-10T00:48:40;101200.47;;;17.72;51.21
50356;BME280;36264;51.296;-0.602;2023-04-10T00:51:06;101200.63;;;17.85;50.93
50356;BME280;36264;51.296;-0.602;2023-04-10T00:53:31;101200.81;;;17.82;51.05
50356;BME280;36264;51.296;-0.602;2023-04-10T00:55:58;101200.41;;;17.89;51.00
50356;BME280;36264;51.296;-0.602;2023-04-10T00:58:24;101198.75;;;17.71;51.33
50356;BME280;36264;51.296;-0.602;2023-04-10T01:00:51;101190.03;;;17.70;51.46
50356;BME280;36264;51.296;-0.602;2023-04-10T01:03:18;101186.41;;;17.89;51.32
50356;BME280;36264;51.296;-0.602;2023-04-10T01:05:53;101186.53;;;18.03;51.15
50356;BME280;36264;51.296;-0.602;2023-04-10T01:08:31;101181.34;;;18.02;51.04
50356;BME280;36264;51.296;-0.602;2023-04-10T01:11:05;101176.09;;;18.02;51.47
50356;BME280;36264;51.296;-0.602;2023-04-10T01:13:42;101172.53;;;18.03;51.76
50356;BME280;36264;51.296;-0.602;2023-04-10T01:16:23;101166.25;;;18.05;52.00
50356;BME280;36264;51.296;-0.602;2023-04-10T01:21:48;101162.16;;;17.84;52.63
50356;BME280;36264;51.296;-0.602;2023-04-10T01:24:36;101157.88;;;17.99;53.21
50356;BME280;36264;51.296;-0.602;2023-04-10T01:30:11;101155.75;;;17.89;52.92
50356;BME280;36264;51.296;-0.602;2023-04-10T01:32:39;101152.84;;;17.78;53.62
50356;BME280;36264;51.296;-0.602;2023-04-10T01:35:06;101160.25;;;17.70;53.93
50356;BME280;36264;51.296;-0.602;2023-04-10T01:37:36;101150.03;;;17.81;54.16
50356;BME280;36264;51.296;-0.602;2023-04-10T01:40:04;101151.47;;;17.71;54.57
50356;BME280;36264;51.296;-0.602;2023-04-10T01:42:34;101153.16;;;17.72;54.33
50356;BME280;36264;51.296;-0.602;2023-04-10T01:45:03;101155.22;;;17.67;55.49
50356;BME280;36264;51.296;-0.602;2023-04-10T01:47:31;101149.06;;;17.50;54.94
50356;BME280;36264;51.296;-0.602;2023-04-10T01:49:57;101149.31;;;17.62;55.57
50356;BME280;36264;51.296;-0.602;2023-04-10T01:52:24;101141.44;;;17.62;55.58
50356;BME280;36264;51.296;-0.602;2023-04-10T01:54:52;101137.56;;;17.69;55.47
50356;BME280;36264;51.296;-0.602;2023-04-10T01:57:18;101147.66;;;17.61;56.28
50356;BME280;36264;51.296;-0.602;2023-04-10T01:59:43;101135.78;;;17.53;56.62
50356;BME280;36264;51.296;-0.602;2023-04-10T02:02:09;101128.56;;;17.57;56.38
50356;BME280;36264;51.296;-0.602;2023-04-10T02:04:36;101117.66;;;17.65;56.57
50356;BME280;36264;51.296;-0.602;2023-04-10T02:07:03;101117.81;;;17.78;56.80
50356;BME280;36264;51.296;-0.602;2023-04-10T02:10:14;101121.81;;;17.85;59.27
50356;BME280;36264;51.296;-0.602;2023-04-10T02:12:45;101109.28;;;17.90;58.83
50356;BME280;36264;51.296;-0.602;2023-04-10T02:15:13;101114.59;;;17.72;58.11
50356;BME280;36264;51.296;-0.602;2023-04-10T02:17:41;101111.56;;;17.64;58.63
50356;BME280;36264;51.296;-0.602;2023-04-10T02:20:07;101105.19;;;17.68;59.08
50356;BME280;36264;51.296;-0.602;2023-04-10T02:22:34;101103.59;;;17.66;58.62
50356;BME280;36264;51.296;-0.602;2023-04-10T02:25:03;101106.38;;;17.79;58.91
50356;BME280;36264;51.296;-0.602;2023-04-10T02:27:29;101102.56;;;17.68;59.43
50356;BME280;36264;51.296;-0.602;2023-04-10T02:29:55;101096.38;;;17.53;60.39
50356;BME280;36264;51.296;-0.602;2023-04-10T02:32:21;101090.78;;;17.60;60.18
50356;BME280;36264;51.296;-0.602;2023-04-10T02:34:47;101081.47;;;17.54;60.14
50356;BME280;36264;51.296;-0.602;2023-04-10T02:37:12;101084.09;;;17.54;60.45
50356;BME280;36264;51.296;-0.602;2023-04-10T02:39:38;101073.50;;;17.55;60.59
50356;BME280;36264;51.296;-0.602;2023-04-10T02:42:03;101081.53;;;17.52;61.10
50356;BME280;36264;51.296;-0.602;2023-04-10T02:44:28;101069.44;;;17.50;61.21
50356;BME280;36264;51.296;-0.602;2023-04-10T02:46:53;101064.28;;;17.48;61.90
50356;BME280;36264;51.296;-0.602;2023-04-10T02:49:19;101066.91;;;17.48;61.86
50356;BME280;36264;51.296;-0.602;2023-04-10T02:51:44;101072.91;;;17.50;61.71
50356;BME280;36264;51.296;-0.602;2023-04-10T02:54:10;101074.78;;;17.48;62.20
50356;BME280;36264;51.296;-0.602;2023-04-10T02:56:35;101066.66;;;17.53;62.06
50356;BME280;36264;51.296;-0.602;2023-04-10T02:59:01;101065.03;;;17.50;62.24
50356;BME280;36264;51.296;-0.602;2023-04-10T03:01:26;101063.16;;;17.52;62.64
50356;BME280;36264;51.296;-0.602;2023-04-10T03:03:52;101062.91;;;17.41;63.01
50356;BME280;36264;51.296;-0.602;2023-04-10T03:06:17;101062.16;;;17.39;63.14
50356;BME280;36264;51.296;-0.602;2023-04-10T03:08:42;101063.00;;;17.39;63.41
50356;BME280;36264;51.296;-0.602;2023-04-10T03:11:08;101056.81;;;17.41;63.15
50356;BME280;36264;51.296;-0.602;2023-04-10T03:13:33;101056.72;;;17.42;63.52
50356;BME280;36264;51.296;-0.602;2023-04-10T03:15:58;101052.94;;;17.48;63.38
50356;BME280;36264;51.296;-0.602;2023-04-10T03:18:24;101054.03;;;17.44;63.93
50356;BME280;36264;51.296;-0.602;2023-04-10T03:20:49;101060.13;;;17.44;63.73
50356;BME280;36264;51.296;-0.602;2023-04-10T03:23:15;101049.44;;;17.47;63.82
50356;BME280;36264;51.296;-0.602;2023-04-10T03:25:41;101045.97;;;17.47;64.05
50356;BME280;36264;51.296;-0.602;2023-04-10T03:28:06;101037.84;;;17.51;64.14
50356;BME280;36264;51.296;-0.602;2023-04-10T03:30:31;101038.59;;;17.53;64.04
50356;BME280;36264;51.296;-0.602;2023-04-10T03:32:59;101040.13;;;17.58;64.03
50356;BME280;36264;51.296;-0.602;2023-04-10T03:35:24;101041.06;;;17.56;64.41
50356;BME280;36264;51.296;-0.602;2023-04-10T03:37:50;101042.22;;;17.51;64.28
50356;BME280;36264;51.296;-0.602;2023-04-10T03:40:15;101040.47;;;17.51;64.58
50356;BME280;36264;51.296;-0.602;2023-04-10T03:42:40;101037.59;;;17.56;64.54
50356;BME280;36264;51.296;-0.602;2023-04-10T03:45:06;101036.38;;;17.62;64.39
50356;BME280;36264;51.296;-0.602;2023-04-10T03:47:32;101032.00;;;17.62;64.66
50356;BME280;36264;51.296;-0.602;2023-04-10T03:49:58;101022.00;;;17.53;64.93
50356;BME280;36264;51.296;-0.602;2023-04-10T03:52:24;101018.19;;;17.59;65.17
50356;BME280;36264;51.296;-0.602;2023-04-10T03:54:52;101015.56;;;17.43;65.51
50356;BME280;36264;51.296;-0.602;2023-04-10T03:57:17;101020.81;;;17.43;65.66
50356;BME280;36264;51.296;-0.602;2023-04-10T03:59:45;101015.56;;;17.43;65.87
50356;BME280;36264;51.296;-0.602;2023-04-10T04:02:11;101011.09;;;17.45;65.79
50356;BME280;36264;51.296;-0.602;2023-04-10T04:04:36;101010.06;;;17.47;66.08
50356;BME280;36264;51.296;-0.602;2023-04-10T04:07:01;101011.25;;;17.42;67.24
50356;BME280;36264;51.296;-0.602;2023-04-10T04:09:27;101008.56;;;17.43;66.60
50356;BME280;36264;51.296;-0.602;2023-04-10T04:11:52;101005.84;;;17.45;66.47
50356;BME280;36264;51.296;-0.602;2023-04-10T04:14:17;101003.03;;;17.48;66.43
50356;BME280;36264;51.296;-0.602;2023-04-10T04:16:43;100996.75;;;17.50;66.60
50356;BME280;36264;51.296;-0.602;2023-04-10T04:19:08;100988.88;;;17.50;66.86
50356;BME280;36264;51.296;-0.602;2023-04-10T04:21:33;100991.50;;;17.50;66.62
50356;BME280;36264;51.296;-0.602;2023-04-10T04:23:59;100996.75;;;17.50;66.83
50356;BME280;36264;51.296;-0.602;2023-04-10T04:26:24;100995.06;;;17.49;66.97
50356;BME280;36264;51.296;-0.602;2023-04-10T04:28:50;100991.59;;;17.49;67.41
50356;BME280;36264;51.296;-0.602;2023-04-10T04:31:15;100990.59;;;17.51;67.07
50356;BME280;36264;51.296;-0.602;2023-04-10T04:33:41;100996.84;;;17.49;67.18
50356;BME280;36264;51.296;-0.602;2023-04-10T04:36:06;100996.75;;;17.50;67.64
50356;BME280;36264;51.296;-0.602;2023-04-10T04:38:32;100990.34;;;17.40;68.18
50356;BME280;36264;51.296;-0.602;2023-04-10T04:40:57;100987.00;;;17.36;67.82
50356;BME280;36264;51.296;-0.602;2023-04-10T04:43:22;100979.59;;;17.29;68.13
50356;BME280;36264;51.296;-0.602;2023-04-10T04:45:48;100979.84;;;17.24;68.71
50356;BME280;36264;51.296;-0.602;2023-04-10T04:48:13;100974.59;;;17.24;68.66
50356;BME280;36264;51.296;-0.602;2023-04-10T04:50:39;100973.91;;;17.20;69.34
50356;BME280;36264;51.296;-0.602;2023-04-10T04:53:05;100968.97;;;17.14;68.92
50356;BME280;36264;51.296;-0.602;2023-04-10T04:55:31;100967.97;;;17.17;69.44
50356;BME280;36264;51.296;-0.602;2023-04-10T04:57:56;100956.72;;;17.15;69.20
50356;BME280;36264;51.296;-0.602;2023-04-10T05:00:21;100946.22;;;17.15;69.20
50356;BME280;36264;51.296;-0.602;2023-04-10T05:02:47;100941.47;;;17.06;69.35
50356;BME280;36264;51.296;-0.602;2023-04-10T05:05:12;100943.28;;;17.05;69.37
50356;BME280;36264;51.296;-0.602;2023-04-10T05:07:37;100940.72;;;17.04;69.40
50356;BME280;36264;51.296;-0.602;2023-04-10T05:10:03;100925.22;;;17.15;69.46
50356;BME280;36264;51.296;-0.602;2023-04-10T05:12:29;100917.34;;;17.15;69.39
50356;BME280;36264;51.296;-0.602;2023-04-10T05:14:54;100912.84;;;17.17;69.81
50356;BME280;36264;51.296;-0.602;2023-04-10T05:17:19;100905.16;;;17.14;71.17
50356;BME280;36264;51.296;-0.602;2023-04-10T05:19:45;100906.59;;;17.19;70.16
50356;BME280;36264;51.296;-0.602;2023-04-10T05:22:10;100903.13;;;17.19;70.33
50356;BME280;36264;51.296;-0.602;2023-04-10T05:24:36;100901.94;;;17.25;69.99
50356;BME280;36264;51.296;-0.602;2023-04-10T05:27:01;100898.31;;;17.27;70.11
50356;BME280;36264;51.296;-0.602;2023-04-10T05:29:27;100895.75;;;17.26;69.95
50356;BME280;36264;51.296;-0.602;2023-04-10T05:31:52;100897.53;;;17.25;70.08
50356;BME280;36264;51.296;-0.602;2023-04-10T05:34:17;100902.50;;;17.30;70.09
50356;BME280;36264;51.296;-0.602;2023-04-10T05:36:43;100898.78;;;17.34;70.24
50356;BME280;36264;51.296;-0.602;2023-04-10T05:39:08;100896.16;;;17.34;70.03
50356;BME280;36264;51.296;-0.602;2023-04-10T05:41:34;100891.66;;;17.36;70.03
50356;BME280;36264;51.296;-0.602;2023-04-10T05:43:59;100887.25;;;17.36;70.23
50356;BME280;36264;51.296;-0.602;2023-04-10T05:46:24;100893.19;;;17.40;70.32
50356;BME280;36264;51.296;-0.602;2023-04-10T05:48:50;100890.56;;;17.40;70.48
50356;BME280;36264;51.296;-0.602;2023-04-10T05:51:15;100886.16;;;17.41;70.44
50356;BME280;36264;51.296;-0.602;2023-04-10T05:53:40;100878.28;;;17.41;70.53
50356;BME280;36264;51.296;-0.602;2023-04-10T05:56:06;100875.13;;;17.50;70.58
50356;BME280;36264;51.296;-0.602;2023-04-10T05:58:32;100867.50;;;17.45;70.81
50356;BME280;36264;51.296;-0.602;2023-04-10T06:00:57;100864.53;;;17.51;70.64
50356;BME280;36264;51.296;-0.602;2023-04-10T06:03:22;100863.41;;;17.55;70.59
50356;BME280;36264;51.296;-0.602;2023-04-10T06:05:48;100861.56;;;17.58;70.46
50356;BME280;36264;51.296;-0.602;2023-04-10T06:08:13;100855.69;;;17.52;71.50
50356;BME280;36264;51.296;-0.602;2023-04-10T06:10:39;100857.78;;;17.62;71.05
50356;BME280;36264;51.296;-0.602;2023-04-10T06:13:05;100853.25;;;17.49;71.87
50356;BME280;36264;51.296;-0.602;2023-04-10T06:15:30;100855.22;;;17.46;72.88
50356;BME280;36264;51.296;-0.602;2023-04-10T06:17:56;100855.22;;;17.46;72.26
50356;BME280;36264;51.296;-0.602;2023-04-10T06:20:21;100844.09;;;17.56;72.25
50356;BME280;36264;51.296;-0.602;2023-04-10T06:22:47;100847.56;;;17.57;71.99
50356;BME280;36264;51.296;-0.602;2023-04-10T06:25:12;100842.13;;;17.60;72.35
50356;BME280;36264;51.296;-0.602;2023-04-10T06:27:38;100844.47;;;17.65;72.46
50356;BME280;36264;51.296;-0.602;2023-04-10T06:30:03;100847.97;;;17.65;72.83
50356;BME280;36264;51.296;-0.602;2023-04-10T06:32:29;100845.44;;;17.64;72.41
50356;BME280;36264;51.296;-0.602;2023-04-10T06:34:55;100848.06;;;17.64;72.34
50356;BME280;36264;51.296;-0.602;2023-04-10T06:37:29;100839.19;;;17.95;72.42
50356;BME280;36264;51.296;-0.602;2023-04-10T06:40:19;100830.75;;;17.90;72.96
50356;BME280;36264;51.296;-0.602;2023-04-10T06:42:44;100837.81;;;17.59;73.85
50356;BME280;36264;51.296;-0.602;2023-04-10T06:45:10;100834.06;;;17.63;72.94
50356;BME280;36264;51.296;-0.602;2023-04-10T06:47:35;100831.06;;;17.69;72.35
50356;BME280;36264;51.296;-0.602;2023-04-10T06:50:01;100834.63;;;17.68;72.54
50356;BME280;36264;51.296;-0.602;2023-04-10T06:52:26;100823.47;;;17.65;72.59
50356;BME280;36264;51.296;-0.602;2023-04-10T06:54:51;100827.50;;;17.56;72.73
50356;BME280;36264;51.296;-0.602;2023-04-10T06:57:17;100825.88;;;17.53;72.34
50356;BME280;36264;51.296;-0.602;2023-04-10T06:59:43;100813.50;;;17.55;72.58
50356;BME280;36264;51.296;-0.602;2023-04-10T07:02:09;100823.88;;;17.43;73.23
50356;BME280;36264;51.296;-0.602;2023-04-10T07:04:35;100815.91;;;17.44;72.77
50356;BME280;36264;51.296;-0.602;2023-04-10T07:07:00;100812.56;;;17.42;72.89
50356;BME280;36264;51.296;-0.602;2023-04-10T07:09:26;100808.03;;;17.44;73.03
50356;BME280;36264;51.296;-0.602;2023-04-10T07:11:52;100796.72;;;17.44;72.93
50356;BME280;36264;51.296;-0.602;2023-04-10T07:14:17;100799.50;;;17.41;73.38
50356;BME280;36264;51.296;-0.602;2023-04-10T07:16:43;100798.84;;;17.37;73.58
50356;BME280;36264;51.296;-0.602;2023-04-10T07:19:08;100780.84;;;17.31;73.88
50356;BME280;36264;51.296;-0.602;2023-04-10T07:21:34;100779.97;;;17.30;74.51
50356;BME280;36264;51.296;-0.602;2023-04-10T07:23:59;100775.41;;;17.34;73.92
50356;BME280;36264;51.296;-0.602;2023-04-10T07:26:24;100774.09;;;17.41;73.82
50356;BME280;36264;51.296;-0.602;2023-04-10T07:28:50;100779.25;;;17.43;73.90
50356;BME280;36264;51.296;-0.602;2023-04-10T07:31:15;100759.94;;;17.44;73.90
50356;BME280;36264;51.296;-0.602;2023-04-10T07:33:42;100755.16;;;17.50;73.54
50356;BME280;36264;51.296;-0.602;2023-04-10T07:36:07;100755.91;;;17.52;73.99
50356;BME280;36264;51.296;-0.602;2023-04-10T07:38:33;100748.81;;;17.54;74.05
50356;BME280;36264;51.296;-0.602;2023-04-10T07:40:58;100753.38;;;17.51;74.73
50356;BME280;36264;51.296;-0.602;2023-04-10T07:43:24;100743.94;;;17.63;74.29
50356;BME280;36264;51.296;-0.602;2023-04-10T07:45:50;100742.50;;;17.57;74.20
50356;BME280;36264;51.296;-0.602;2023-04-10T07:48:15;100744.28;;;17.56;75.06
50356;BME280;36264;51.296;-0.602;2023-04-10T07:50:41;100737.44;;;17.54;75.13
50356;BME280;36264;51.296;-0.602;2023-04-10T07:53:06;100739.88;;;17.57;75.18
50356;BME280;36264;51.296;-0.602;2023-04-10T07:55:43;100731.25;;;17.84;78.29
50356;BME280;36264;51.296;-0.602;2023-04-10T07:58:09;100714.13;;;17.64;75.88
50356;BME280;36264;51.296;-0.602;2023-04-10T08:00:34;100709.78;;;17.63;76.05
50356;BME280;36264;51.296;-0.602;2023-04-10T08:03:00;100717.19;;;17.56;76.17
50356;BME280;36264;51.296;-0.602;2023-04-10T08:05:26;100708.00;;;17.63;76.26
50356;BME280;36264;51.296;-0.602;2023-04-10T08:07:52;100705.38;;;17.63;76.38
50356;BME280;36264;51.296;-0.602;2023-04-10T08:10:17;100712.41;;;17.63;76.50
50356;BME280;36264;51.296;-0.602;2023-04-10T08:12:43;100708.88;;;17.64;76.59
50356;BME280;36264;51.296;-0.602;2023-04-10T08:15:08;100704.34;;;17.66;77.99
50356;BME280;36264;51.296;-0.602;2023-04-10T08:17:34;100703.59;;;17.64;77.16
50356;BME280;36264;51.296;-0.602;2023-04-10T08:19:59;100697.50;;;17.63;77.37
50356;BME280;36264;51.296;-0.602;2023-04-10T08:22:24;100696.38;;;17.53;78.71
50356;BME280;36264;51.296;-0.602;2023-04-10T08:24:50;100691.88;;;17.55;78.57
50356;BME280;36264;51.296;-0.602;2023-04-10T08:27:15;100687.72;;;17.51;79.29
50356;BME280;36264;51.296;-0.602;2023-04-10T08:29:41;100682.50;;;17.65;77.92
50356;BME280;36264;51.296;-0.602;2023-04-10T08:32:07;100672.56;;;17.70;78.08
50356;BME280;36264;51.296;-0.602;2023-04-10T08:34:32;100669.84;;;17.58;79.15
50356;BME280;36264;51.296;-0.602;2023-04-10T08:36:58;100674.41;;;17.54;79.32
50356;BME280;36264;51.296;-0.602;2023-04-10T08:39:23;100667.78;;;17.63;78.91
50356;BME280;36264;51.296;-0.602;2023-04-10T08:41:48;100657.91;;;17.66;78.65
50356;BME280;36264;51.296;-0.602;2023-04-10T08:44:14;100653.19;;;17.71;78.36
50356;BME280;36264;51.296;-0.602;2023-04-10T08:46:44;100653.41;;;17.97;78.46
50356;BME280;36264;51.296;-0.602;2023-04-10T08:49:16;100657.50;;;18.01;78.36
50356;BME280;36264;51.296;-0.602;2023-04-10T08:51:45;100648.78;;;18.01;78.37
50356;BME280;36264;51.296;-0.602;2023-04-10T08:54:17;100659.75;;;18.07;78.42
50356;BME280;36264;51.296;-0.602;2023-04-10T08:56:45;100648.25;;;18.23;82.77
50356;BME280;36264;51.296;-0.602;2023-04-10T08:59:11;100653.22;;;17.86;78.68
50356;BME280;36264;51.296;-0.602;2023-04-10T09:01:38;100656.09;;;18.10;78.09
50356;BME280;36264;51.296;-0.602;2023-04-10T09:04:04;100649.63;;;17.87;78.66
50356;BME280;36264;51.296;-0.602;2023-04-10T09:06:30;100643.53;;;17.86;78.92
50356;BME280;36264;51.296;-0.602;2023-04-10T09:08:56;100640.38;;;17.81;79.09
50356;BME280;36264;51.296;-0.602;2023-04-10T09:11:23;100634.91;;;17.84;78.90
50356;BME280;36264;51.296;-0.602;2023-04-10T09:13:49;100638.28;;;17.86;78.44
50356;BME280;36264;51.296;-0.602;2023-04-10T09:16:15;100655.66;;;17.89;78.66
50356;BME280;36264;51.296;-0.602;2023-04-10T09:21:10;100654.34;;;17.96;78.64
50356;BME280;36264;51.296;-0.602;2023-04-10T09:23:36;100636.41;;;17.88;78.70
50356;BME280;36264;51.296;-0.602;2023-04-10T09:26:08;100627.19;;;18.10;79.53
50356;BME280;36264;51.296;-0.602;2023-04-10T09:28:59;100624.78;;;18.20;79.68
50356;BME280;36264;51.296;-0.602;2023-04-10T09:31:36;100620.94;;;18.11;78.94
50356;BME280;36264;51.296;-0.602;2023-04-10T09:34:15;100626.81;;;18.29;79.43
50356;BME280;36264;51.296;-0.602;2023-04-10T09:36:44;100628.44;;;18.17;79.01
50356;BME280;36264;51.296;-0.602;2023-04-10T09:39:16;100633.84;;;18.01;79.38
50356;BME280;36264;51.296;-0.602;2023-04-10T09:41:50;100626.31;;;18.37;79.80
50356;BME280;36264;51.296;-0.602;2023-04-10T09:44:29;100623.53;;;18.25;80.04
50356;BME280;36264;51.296;-0.602;2023-04-10T09:46:55;100629.41;;;18.16;78.88
50356;BME280;36264;51.296;-0.602;2023-04-10T09:49:21;100628.19;;;18.07;79.55
50356;BME280;36264;51.296;-0.602;2023-04-10T09:51:46;100612.25;;;18.10;78.90
50356;BME280;36264;51.296;-0.602;2023-04-10T09:54:13;100608.69;;;18.12;79.70
50356;BME280;36264;51.296;-0.602;2023-04-10T09:56:40;100613.56;;;18.31;79.32
50356;BME280;36264;51.296;-0.602;2023-04-10T09:59:06;100616.69;;;18.23;79.60
50356;BME280;36264;51.296;-0.602;2023-04-10T10:01:32;100607.88;;;18.24;80.17
50356;BME280;36264;51.296;-0.602;2023-04-10T10:04:02;100602.41;;;18.27;79.63
50356;BME280;36264;51.296;-0.602;2023-04-10T10:06:31;100600.75;;;18.39;79.52
50356;BME280;36264;51.296;-0.602;2023-04-10T10:09:00;100601.19;;;18.45;80.19
50356;BME280;36264;51.296;-0.602;2023-04-10T10:11:27;100598.22;;;18.37;79.39
50356;BME280;36264;51.296;-0.602;2023-04-10T10:13:53;100589.91;;;18.31;79.48
50356;BME280;36264;51.296;-0.602;2023-04-10T10:16:45;100582.06;;;18.56;81.39
50356;BME280;36264;51.296;-0.602;2023-04-10T10:19:16;100574.19;;;18.56;78.96
50356;BME280;36264;51.296;-0.602;2023-04-10T10:21:43;100571.34;;;18.46;79.27
50356;BME280;36264;51.296;-0.602;2023-04-10T10:24:10;100571.84;;;18.39;80.45
50356;BME280;36264;51.296;-0.602;2023-04-10T10:26:39;100570.38;;;18.47;80.30
50356;BME280;36264;51.296;-0.602;2023-04-10T10:29:07;100565.09;;;18.35;82.91
50356;BME280;36264;51.296;-0.602;2023-04-10T10:31:38;100559.09;;;18.33;81.21
50356;BME280;36264;51.296;-0.602;2023-04-10T10:34:04;100565.19;;;18.33;82.55
50356;BME280;36264;51.296;-0.602;2023-04-10T10:36:34;100565.84;;;18.37;82.42
50356;BME280;36264;51.296;-0.602;2023-04-10T10:39:20;100560.50;;;18.64;81.57
50356;BME280;36264;51.296;-0.602;2023-04-10T10:41:56;100559.75;;;18.62;82.34
50356;BME280;36264;51.296;-0.602;2023-04-10T10:44:32;100561.03;;;18.69;80.51
50356;BME280;36264;51.296;-0.602;2023-04-10T10:47:19;100546.00;;;18.84;80.84
50356;BME280;36264;51.296;-0.602;2023-04-10T10:49:53;100546.94;;;18.70;81.83
50356;BME280;36264;51.296;-0.602;2023-04-10T10:52:51;100540.41;;;18.76;81.32
50356;BME280;36264;51.296;-0.602;2023-04-10T10:58:00;100521.06;;;19.03;81.25
50356;BME280;36264;51.296;-0.602;2023-04-10T11:08:14;100523.78;;;19.01;80.73
50356;BME280;36264;51.296;-0.602;2023-04-10T11:10:59;100543.31;;;19.35;81.67
50356;BME280;36264;51.296;-0.602;2023-04-10T11:13:25;100548.97;;;19.05;81.45
50356;BME280;36264;51.296;-0.602;2023-04-10T11:15:51;100546.44;;;19.04;82.06
50356;BME280;36264;51.296;-0.602;2023-04-10T11:18:16;100548.75;;;19.08;80.93
50356;BME280;36264;51.296;-0.602;2023-04-10T11:21:07;100546.84;;;19.47;81.17
50356;BME280;36264;51.296;-0.602;2023-04-10T11:23:33;100546.13;;;19.08;80.84
50356;BME280;36264;51.296;-0.602;2023-04-10T11:25:58;100532.75;;;18.86;81.44
50356;BME280;36264;51.296;-0.602;2023-04-10T11:28:44;100534.66;;;19.46;80.22
50356;BME280;36264;51.296;-0.602;2023-04-10T11:31:20;100540.09;;;19.56;81.54
50356;BME280;36264;51.296;-0.602;2023-04-10T11:33:48;100532.75;;;19.48;80.04
50356;BME280;36264;51.296;-0.602;2023-04-10T11:36:15;100513.31;;;19.62;79.42
50356;BME280;36264;51.296;-0.602;2023-04-10T11:39:00;100515.16;;;19.73;80.70
50356;BME280;36264;51.296;-0.602;2023-04-10T11:41:51;100502.22;;;19.94;78.70
50356;BME280;36264;51.296;-0.602;2023-04-10T11:44:25;100490.13;;;20.03;78.55
50356;BME280;36264;51.296;-0.602;2023-04-10T11:46:52;100501.50;;;19.92;78.16
50356;BME280;36264;51.296;-0.602;2023-04-10T11:49:29;100490.91;;;20.16;77.31
50356;BME280;36264;51.296;-0.602;2023-04-10T11:51:55;100481.97;;;19.95;76.87
50356;BME280;36264;51.296;-0.602;2023-04-10T11:54:23;100481.78;;;20.20;75.93
50356;BME280;36264;51.296;-0.602;2023-04-10T11:57:05;100487.84;;;20.45;73.46
50356;BME280;36264;51.296;-0.602;2023-04-10T11:59:33;100486.97;;;20.33;74.00
50356;BME280;36264;51.296;-0.602;2023-04-10T12:04:29;100498.50;;;20.32;73.83
50356;BME280;36264;51.296;-0.602;2023-04-10T12:06:55;100486.78;;;20.48;72.32
50356;BME280;36264;51.296;-0.602;2023-04-10T12:09:21;100483.28;;;20.58;72.63
50356;BME280;36264;51.296;-0.602;2023-04-10T12:14:13;100476.84;;;20.62;71.27
50356;BME280;36264;51.296;-0.602;2023-04-10T12:16:39;100482.75;;;20.66;70.60
50356;BME280;36264;51.296;-0.602;2023-04-10T12:19:05;100491.75;;;20.86;71.46
50356;BME280;36264;51.296;-0.602;2023-04-10T12:21:34;100492.47;;;20.88;68.12
50356;BME280;36264;51.296;-0.602;2023-04-10T12:23:59;100487.63;;;20.59;68.97
50356;BME280;36264;51.296;-0.602;2023-04-10T12:26:25;100479.09;;;20.44;67.16
50356;BME280;36264;51.296;-0.602;2023-04-10T12:28:52;100505.72;;;20.53;67.09
50356;BME280;36264;51.296;-0.602;2023-04-10T12:31:32;100503.59;;;20.92;64.76
50356;BME280;36264;51.296;-0.602;2023-04-10T12:33:59;100493.28;;;20.66;67.38
50356;BME280;36264;51.296;-0.602;2023-04-10T12:36:29;100485.22;;;21.24;67.74
50356;BME280;36264;51.296;-0.602;2023-04-10T12:38:56;100499.59;;;21.31;66.10
50356;BME280;36264;51.296;-0.602;2023-04-10T12:41:23;100485.84;;;21.16;61.81
50356;BME280;36264;51.296;-0.602;2023-04-10T12:43:50;100487.94;;;21.45;65.41
50356;BME280;36264;51.296;-0.602;2023-04-10T12:46:24;100495.75;;;21.35;59.75
50356;BME280;36264;51.296;-0.602;2023-04-10T12:48:50;100509.34;;;21.20;65.05
50356;BME280;36264;51.296;-0.602;2023-04-10T12:51:15;100520.03;;;21.18;64.06
50356;BME280;36264;51.296;-0.602;2023-04-10T12:53:44;100552.56;;;20.96;99.13
50356;BME280;36264;51.296;-0.602;2023-04-10T12:56:10;100555.47;;;20.11;75.71
50356;BME280;36264;51.296;-0.602;2023-04-10T12:58:37;100551.22;;;19.35;74.13
50356;BME280;36264;51.296;-0.602;2023-04-10T13:01:07;100570.84;;;18.80;71.55
50356;BME280;36264;51.296;-0.602;2023-04-10T13:03:34;100576.81;;;17.89;72.16
50356;BME280;36264;51.296;-0.602;2023-04-10T13:06:01;100531.75;;;17.68;70.81